Time;durP1;ratioP1;P1;durP2;ratioP2;P2;SDS_P1;SDS_P2;PMS_P1;PMS_P2;Temp;Humidity;BMP_temperature;BMP_pressure;BME280_temperature;BME280_humidity;BME280_pressure;Samples;Min_cycle;Max_cycle;Signal;HPM_P1;HPM_P2
2021/06/09 00:02:08;;;;;;;11.32;7.38;;;;;;;18.05;81.50;100725.31;4788307;30;20054;-73
2021/06/09 00:05:13;;;;;;;10.85;7.60;;;;;;;18.06;81.06;100729.75;4788821;30;20042;-76
2021/06/09 00:08:19;;;;;;;15.25;8.07;;;;;;;18.03;80.89;100730.06;4789451;30;20054;-74
2021/06/09 00:11:23;;;;;;;9.85;7.93;;;;;;;17.99;81.22;100729.59;4787630;30;20399;-82
2021/06/09 00:14:28;;;;;;;14.63;8.05;;;;;;;17.98;81.14;100735.19;4788029;30;20058;-74
2021/06/09 00:17:32;;;;;;;12.20;8.32;;;;;;;18.02;81.18;100736.56;4778304;30;20395;-77
2021/06/09 00:20:36;;;;;;;12.63;7.97;;;;;;;17.94;81.23;100726.53;4789077;30;20510;-79
2021/06/09 00:23:41;;;;;;;15.32;8.15;;;;;;;17.87;81.33;100727.41;4778431;30;20081;-77
2021/06/09 00:26:45;;;;;;;10.77;7.90;;;;;;;17.87;81.53;100721.97;4787677;30;20058;-76
2021/06/09 00:29:49;;;;;;;11.70;8.02;;;;;;;17.83;81.31;100734.19;4788493;30;20066;-78
2021/06/09 00:32:55;;;;;;;11.48;8.88;;;;;;;17.82;81.30;100729.78;4778522;30;20514;-75
2021/06/09 00:36:00;;;;;;;10.82;7.88;;;;;;;17.84;81.34;100725.03;4789457;30;20066;-74
2021/06/09 00:39:06;;;;;;;11.55;7.95;;;;;;;17.82;81.30;100727.06;4776099;30;20054;-75
2021/06/09 00:42:11;;;;;;;9.43;8.45;;;;;;;17.87;80.92;100725.53;4778169;30;20403;-76
2021/06/09 00:45:15;;;;;;;13.30;9.20;;;;;;;17.86;80.83;100721.13;4788576;30;20062;-74
2021/06/09 00:48:24;;;;;;;11.40;8.35;;;;;;;17.81;81.21;100723.50;4777634;30;20058;-75
2021/06/09 00:51:29;;;;;;;14.18;9.15;;;;;;;17.84;81.07;100717.75;4787466;30;20055;-78
2021/06/09 00:54:33;;;;;;;12.82;8.75;;;;;;;17.84;81.09;100722.31;4776823;30;20103;-73
2021/06/09 00:57:39;;;;;;;10.77;8.27;;;;;;;17.78;81.12;100718.41;4767356;30;20054;-73
2021/06/09 01:00:44;;;;;;;9.18;7.85;;;;;;;17.79;81.48;100716.56;4775685;30;20070;-74
2021/06/09 01:03:49;;;;;;;13.23;8.68;;;;;;;17.76;81.46;100714.16;4787151;30;20506;-73
2021/06/09 01:06:53;;;;;;;14.38;9.13;;;;;;;17.80;81.38;100713.66;4777182;30;20078;-73
2021/06/09 01:09:57;;;;;;;11.07;9.05;;;;;;;17.77;81.40;100718.59;4788098;30;20058;-74
2021/06/09 01:13:03;;;;;;;13.65;8.52;;;;;;;17.73;81.32;100719.94;4775196;30;20054;-75
2021/06/09 01:16:07;;;;;;;11.30;8.52;;;;;;;17.68;81.74;100711.50;4786803;30;20506;-73
2021/06/09 01:19:12;;;;;;;14.23;8.02;;;;;;;17.71;81.68;100719.25;4776337;30;20492;-80
2021/06/09 01:22:15;;;;;;;8.55;7.80;;;;;;;17.67;81.19;100713.34;4777264;30;20080;-78
2021/06/09 01:25:21;;;;;;;14.07;9.52;;;;;;;17.66;81.49;100716.22;4788160;30;20407;-75
2021/06/09 01:28:26;;;;;;;13.15;8.35;;;;;;;17.67;81.36;100721.50;4786528;30;20055;-82
2021/06/09 01:31:31;;;;;;;14.18;9.38;;;;;;;17.66;81.59;100713.50;4776238;30;20059;-73
2021/06/09 01:34:36;;;;;;;12.40;9.23;;;;;;;17.62;81.99;100717.59;4787497;30;20072;-76
2021/06/09 01:37:40;;;;;;;10.25;9.10;;;;;;;17.59;82.11;100717.94;4787937;30;20095;-74
2021/06/09 01:40:45;;;;;;;12.77;9.68;;;;;;;17.48;82.28;100714.50;4786211;30;20059;-77
2021/06/09 01:43:53;;;;;;;9.50;8.60;;;;;;;17.53;82.57;100706.72;4786738;30;20042;-74
2021/06/09 01:46:57;;;;;;;13.35;9.20;;;;;;;17.52;82.47;100704.19;4787346;30;20051;-74
2021/06/09 01:50:07;;;;;;;14.80;9.70;;;;;;;17.50;82.29;100712.47;4785757;30;20047;-75
2021/06/09 01:53:12;;;;;;;11.43;10.23;;;;;;;17.42;82.78;100717.91;4786852;30;20070;-75
2021/06/09 01:56:16;;;;;;;12.93;10.90;;;;;;;17.38;83.04;100711.09;4787336;30;20510;-73
2021/06/09 01:59:21;;;;;;;14.30;10.70;;;;;;;17.35;83.24;100710.63;4788111;30;20039;-75
2021/06/09 02:02:26;;;;;;;15.18;10.65;;;;;;;17.30;82.94;100708.41;4786300;30;20035;-75
2021/06/09 02:05:34;;;;;;;13.27;10.32;;;;;;;17.26;83.50;100708.91;4786972;30;20047;-73
2021/06/09 02:08:38;;;;;;;14.90;10.60;;;;;;;17.31;82.93;100704.66;4776733;30;20047;-73
2021/06/09 02:11:44;;;;;;;11.60;10.32;;;;;;;17.32;82.88;100708.25;4777132;30;20048;-73
2021/06/09 02:14:49;;;;;;;18.92;9.98;;;;;;;17.36;83.05;100709.59;4786483;30;20039;-74
2021/06/09 02:18:13;;;;;;;16.38;11.63;;;;;;;17.30;82.91;100705.69;4788986;29;20127;-73
2021/06/09 02:21:17;;;;;;;13.70;11.00;;;;;;;17.29;83.20;100717.56;4790921;30;20047;-73
2021/06/09 02:24:22;;;;;;;12.77;11.23;;;;;;;17.31;83.23;100717.38;4788969;30;20047;-73
2021/06/09 02:27:26;;;;;;;13.50;11.63;;;;;;;17.39;82.85;100712.81;4789508;30;20051;-73
2021/06/09 02:30:32;;;;;;;14.43;11.52;;;;;;;17.40;82.23;100717.25;4790061;30;20043;-77
2021/06/09 02:33:25;;;;;;;12.95;10.68;;;;;;;17.41;82.16;100718.91;4782222;29;20047;-75
2021/06/09 02:36:29;;;;;;;13.27;10.50;;;;;;;17.42;82.54;100728.78;4789715;30;20051;-75
2021/06/09 02:39:34;;;;;;;14.45;11.38;;;;;;;17.39;82.62;100729.09;4790407;30;20047;-76
2021/06/09 02:42:38;;;;;;;17.63;10.93;;;;;;;17.34;82.65;100725.19;4790832;30;20051;-74
2021/06/09 02:45:49;;;;;;;11.70;10.38;;;;;;;17.27;82.74;100722.31;4788790;30;20043;-75
2021/06/09 02:48:59;;;;;;;13.82;10.85;;;;;;;17.36;82.62;100720.44;4789365;29;20048;-74
2021/06/09 02:52:15;;;;;;;13.63;11.75;;;;;;;17.33;82.87;100729.75;4788806;30;20047;-77
2021/06/09 02:55:39;;;;;;;12.45;11.02;;;;;;;17.33;82.76;100734.38;4790687;30;20059;-77
2021/06/09 02:58:58;;;;;;;17.25;10.48;;;;;;;17.27;83.24;100729.59;4788867;30;20048;-74
2021/06/09 03:02:10;;;;;;;17.08;11.50;;;;;;;17.24;83.44;100724.50;4788502;30;20039;-74
2021/06/09 03:05:40;;;;;;;17.92;11.88;;;;;;;17.25;83.21;100721.63;4779664;30;20047;-74
2021/06/09 03:09:04;;;;;;;19.88;12.73;;;;;;;17.16;83.75;100730.78;4788757;30;20043;-77
2021/06/09 03:12:13;;;;;;;13.57;12.07;;;;;;;17.12;83.73;100721.28;4789382;30;20055;-75
2021/06/09 03:15:37;;;;;;;12.07;10.75;;;;;;;17.14;83.80;100721.97;4789932;30;20047;-77
2021/06/09 03:18:45;;;;;;;15.25;12.48;;;;;;;17.14;83.68;100724.66;4790370;30;20047;-74
2021/06/09 03:22:03;;;;;;;15.90;12.68;;;;;;;17.12;83.53;100726.69;4788921;30;20043;-74
2021/06/09 03:25:08;;;;;;;14.60;11.68;;;;;;;17.13;83.92;100722.13;4788648;30;20043;-74
2021/06/09 03:28:44;;;;;;;14.80;13.00;;;;;;;17.05;83.89;100719.41;4789239;29;20051;-73
2021/06/09 03:31:54;;;;;;;13.10;11.88;;;;;;;17.05;84.07;100719.41;4777521;30;20399;-73
2021/06/09 03:35:18;;;;;;;15.38;12.43;;;;;;;17.00;84.03;100727.19;4789803;30;20395;-74
2021/06/09 03:38:33;;;;;;;16.90;12.93;;;;;;;17.00;84.22;100727.19;4790318;30;20048;-80
2021/06/09 03:41:41;;;;;;;14.00;12.57;;;;;;;17.05;84.15;100725.69;4789903;29;20059;-75
2021/06/09 03:44:50;;;;;;;14.13;12.65;;;;;;;17.10;84.07;100733.31;4788046;30;20047;-78
2021/06/09 03:47:56;;;;;;;19.33;12.18;;;;;;;17.09;83.93;100731.59;4788947;30;20039;-79
2021/06/09 03:51:02;;;;;;;14.18;12.57;;;;;;;17.07;84.21;100729.06;4778756;30;20047;-76
2021/06/09 03:54:07;;;;;;;14.00;12.50;;;;;;;17.10;83.77;100731.44;4787832;30;20407;-74
2021/06/09 03:57:14;;;;;;;16.15;13.10;;;;;;;17.09;83.71;100739.75;4778764;30;20412;-74
2021/06/09 04:00:22;;;;;;;22.27;12.45;;;;;;;17.05;83.83;100744.66;4789515;30;20051;-75
2021/06/09 04:03:28;;;;;;;16.17;13.32;;;;;;;17.10;83.68;100742.31;4787796;30;20055;-76
2021/06/09 04:06:37;;;;;;;15.07;12.73;;;;;;;17.14;83.67;100743.66;4788446;30;20484;-74
2021/06/09 04:09:44;;;;;;;14.52;13.18;;;;;;;17.23;83.13;100745.34;4778236;30;20051;-80
2021/06/09 04:12:49;;;;;;;15.77;12.95;;;;;;;17.28;82.53;100747.59;4776791;30;20415;-79
2021/06/09 04:15:55;;;;;;;13.48;12.07;;;;;;;17.30;82.74;100746.41;4788380;30;20059;-78
2021/06/09 04:19:01;;;;;;;14.57;13.05;;;;;;;17.29;82.41;100750.13;4777858;30;20052;-78
2021/06/09 04:22:06;;;;;;;17.02;13.30;;;;;;;17.31;83.05;100741.81;4787575;30;20051;-76
2021/06/09 04:25:11;;;;;;;13.70;12.23;;;;;;;17.47;82.85;100745.41;4776520;30;20051;-79
2021/06/09 04:28:19;;;;;;;14.10;12.43;;;;;;;17.43;82.14;100743.19;4788496;30;20051;-74
2021/06/09 04:31:25;;;;;;;14.73;12.82;;;;;;;17.44;82.49;100737.59;4775893;30;20047;-76
2021/06/09 04:34:51;;;;;;;16.77;13.15;;;;;;;17.55;82.14;100753.56;4787509;30;20047;-74
2021/06/09 04:37:55;;;;;;;20.60;14.02;;;;;;;17.63;81.39;100749.16;4788143;30;20043;-79
2021/06/09 04:41:00;;;;;;;15.80;13.07;;;;;;;17.79;81.15;100746.41;4788142;29;20047;-78
2021/06/09 04:44:05;;;;;;;15.25;13.70;;;;;;;17.85;80.92;100757.44;4786867;30;20043;-73
2021/06/09 04:47:11;;;;;;;16.42;13.48;;;;;;;17.97;80.27;100750.63;4787416;30;20043;-74
2021/06/09 04:50:17;;;;;;;14.25;12.75;;;;;;;18.09;80.09;100760.13;4787930;30;20051;-77
2021/06/09 04:53:21;;;;;;;17.63;14.23;;;;;;;18.12;79.30;100751.63;4788615;30;20047;-77
2021/06/09 04:56:33;;;;;;;15.27;13.25;;;;;;;18.31;79.34;100746.81;4786840;30;20488;-75
2021/06/09 04:59:37;;;;;;;28.52;23.95;;;;;;;18.45;78.52;100746.94;4788330;30;20063;-78
2021/06/09 05:02:44;;;;;;;27.63;24.95;;;;;;;18.56;77.97;100753.91;4777830;30;20091;-74
2021/06/09 05:05:50;;;;;;;19.05;16.50;;;;;;;18.75;77.60;100756.19;4787210;30;20043;-74
2021/06/09 05:08:55;;;;;;;14.85;13.02;;;;;;;18.98;76.05;100754.38;4787646;30;20047;-74
2021/06/09 05:12:06;;;;;;;16.50;12.20;;;;;;;19.06;75.91;100758.91;4788340;30;20055;-77
2021/06/09 05:15:12;;;;;;;16.17;12.02;;;;;;;19.10;75.68;100762.97;4776087;30;20043;-76
2021/06/09 05:18:32;;;;;;;14.85;11.88;;;;;;;19.18;75.72;100758.31;4787674;30;20039;-75
2021/06/09 05:21:39;;;;;;;14.20;12.20;;;;;;;19.33;75.37;100758.41;4787716;30;20047;-74
2021/06/09 05:24:46;;;;;;;19.98;12.25;;;;;;;19.56;74.80;100761.13;4788317;30;20403;-76
2021/06/09 05:27:51;;;;;;;15.75;12.07;;;;;;;19.92;73.26;100756.72;4786769;30;20043;-79
2021/06/09 05:30:58;;;;;;;17.48;11.93;;;;;;;19.97;72.81;100767.94;4777290;30;20051;-79
2021/06/09 05:34:03;;;;;;;18.10;11.68;;;;;;;19.97;73.05;100766.03;4787989;30;20051;-76
2021/06/09 05:37:10;;;;;;;14.60;12.15;;;;;;;20.00;73.43;100759.34;4786356;30;20051;-75
2021/06/09 05:40:16;;;;;;;16.35;13.10;;;;;;;19.81;73.65;100765.34;4787048;30;20047;-76
2021/06/09 05:43:22;;;;;;;19.55;13.40;;;;;;;19.90;73.69;100767.81;4777551;30;20059;-75
2021/06/09 05:46:28;;;;;;;25.38;13.70;;;;;;;20.00;73.66;100776.56;4788882;30;20055;-74
2021/06/09 05:49:33;;;;;;;21.83;13.60;;;;;;;20.11;73.42;100773.41;4788005;30;20047;-73
2021/06/09 05:52:38;;;;;;;28.27;14.68;;;;;;;20.15;73.61;100773.03;4787850;30;20059;-72
2021/06/09 05:55:46;;;;;;;23.15;13.57;;;;;;;20.52;72.87;100778.41;4788648;30;20055;-72
2021/06/09 05:58:51;;;;;;;19.75;13.25;;;;;;;20.97;71.15;100780.91;4777099;30;20059;-72
2021/06/09 06:01:55;;;;;;;25.13;12.40;;;;;;;21.24;70.27;100780.22;4770951;30;20392;-73
2021/06/09 06:05:00;;;;;;;17.80;12.77;;;;;;;21.77;69.33;100778.88;4771082;30;20051;-73
2021/06/09 06:08:05;;;;;;;19.70;12.00;;;;;;;22.58;66.17;100778.22;4770652;30;20051;-74
2021/06/09 06:11:12;;;;;;;13.20;11.90;;;;;;;23.02;64.75;100787.94;4785872;29;20040;-74
2021/06/09 06:14:17;;;;;;;13.80;12.15;;;;;;;23.39;63.81;100787.47;4780634;30;20047;-73
2021/06/09 06:17:22;;;;;;;14.70;12.50;;;;;;;23.79;62.68;100777.41;4771153;29;20044;-74
2021/06/09 06:20:26;;;;;;;13.70;12.30;;;;;;;26.51;55.83;100775.72;4787169;30;20047;-73
2021/06/09 06:23:31;;;;;;;15.98;11.60;;;;;;;28.15;50.87;100774.31;4780870;29;20050;-75
2021/06/09 06:26:36;;;;;;;17.05;12.70;;;;;;;27.47;52.42;100773.91;4767149;29;20043;-75
2021/06/09 06:29:43;;;;;;;14.43;12.70;;;;;;;26.84;54.06;100773.44;4784357;30;20047;-74
2021/06/09 06:32:53;;;;;;;16.52;12.68;;;;;;;26.62;54.38;100774.94;4788132;30;20059;-73
2021/06/09 06:35:59;;;;;;;15.38;12.70;;;;;;;26.37;55.63;100775.84;4788596;30;20055;-73
2021/06/09 06:39:07;;;;;;;16.38;12.30;;;;;;;27.66;52.08;100776.38;4770615;30;20388;-73
2021/06/09 06:42:12;;;;;;;14.45;11.98;;;;;;;29.74;46.30;100771.66;4784752;29;20047;-74
2021/06/09 06:45:17;;;;;;;16.73;12.07;;;;;;;30.56;43.95;100772.78;4774668;29;20059;-74
2021/06/09 06:48:23;;;;;;;12.85;11.55;;;;;;;30.79;43.82;100780.00;4787897;30;20396;-73
2021/06/09 06:51:28;;;;;;;13.27;10.95;;;;;;;31.32;42.88;100773.78;4776654;30;20418;-73
2021/06/09 06:54:32;;;;;;;13.20;10.95;;;;;;;30.82;43.87;100774.78;4784824;29;20492;-74
2021/06/09 06:57:37;;;;;;;13.98;11.30;;;;;;;30.74;43.63;100774.38;4784376;30;20043;-73
2021/06/09 07:00:41;;;;;;;15.02;11.60;;;;;;;31.14;43.34;100780.50;4766515;30;20055;-71
2021/06/09 07:03:47;;;;;;;11.88;10.68;;;;;;;31.78;41.95;100775.09;4778407;30;20047;-75
2021/06/09 07:06:52;;;;;;;12.73;11.40;;;;;;;32.26;40.88;100772.19;4789449;30;20043;-73
2021/06/09 07:09:57;;;;;;;12.38;10.40;;;;;;;33.12;39.44;100773.56;4791152;30;20051;-73
2021/06/09 07:13:05;;;;;;;15.50;9.85;;;;;;;33.75;37.99;100771.53;4782698;30;20051;-74
2021/06/09 07:16:10;;;;;;;14.07;10.13;;;;;;;36.19;34.30;100774.00;4789993;30;20510;-74
2021/06/09 07:19:16;;;;;;;12.25;10.95;;;;;;;36.19;32.76;100771.19;4788113;29;20047;-75
2021/06/09 07:22:20;;;;;;;13.65;9.52;;;;;;;38.72;30.18;100769.28;4772715;29;20055;-75
2021/06/09 07:25:32;;;;;;;10.57;9.52;;;;;;;39.20;29.06;100766.91;4789155;29;20054;-74
2021/06/09 07:29:06;;;;;;;10.73;8.98;;;;;;;39.77;27.97;100768.13;4781313;29;20046;-75
2021/06/09 07:32:11;;;;;;;10.05;9.05;;;;;;;39.81;27.83;100772.81;4695819;30;20060;-74
2021/06/09 07:35:17;;;;;;;12.25;7.18;;;;;;;41.96;26.14;100782.97;4689672;30;20064;-73
2021/06/09 07:38:32;;;;;;;9.80;6.97;;;;;;;44.32;22.91;100778.69;4698724;30;20169;-74
2021/06/09 07:41:40;;;;;;;10.23;6.70;;;;;;;44.63;23.13;100777.38;4695070;30;20061;-74
2021/06/09 07:44:58;;;;;;;10.05;7.90;;;;;;;43.70;22.90;100773.16;4696495;30;20057;-74
2021/06/09 07:48:05;;;;;;;8.48;7.60;;;;;;;44.05;23.12;100776.44;4689363;30;20057;-74
2021/06/09 07:51:12;;;;;;;7.97;6.97;;;;;;;44.36;23.29;100778.84;4699120;30;20068;-74
2021/06/09 07:54:18;;;;;;;13.05;7.43;;;;;;;44.51;22.82;100770.53;4702687;30;20061;-74
2021/06/09 07:57:30;;;;;;;12.15;5.60;;;;;;;45.02;21.96;100763.34;4697641;30;20056;-74
2021/06/09 08:00:35;;;;;;;23.73;9.57;;;;;;;44.34;21.74;100775.53;4696809;30;20454;-74
2021/06/09 08:03:41;;;;;;;9.57;7.45;;;;;;;44.38;22.64;100768.81;4697503;30;20056;-74
2021/06/09 08:06:46;;;;;;;14.95;7.80;;;;;;;44.19;22.76;100768.53;4699367;30;20061;-74
2021/06/09 08:09:50;;;;;;;8.48;6.53;;;;;;;42.57;23.82;100774.06;4790134;30;20432;-76
2021/06/09 08:12:58;;;;;;;14.98;9.15;;;;;;;40.28;26.56;100774.16;4778017;30;20118;-76
2021/06/09 08:16:10;;;;;;;11.40;9.35;;;;;;;37.89;29.33;100772.19;4777636;30;20050;-75
2021/06/09 08:19:15;;;;;;;10.02;8.02;;;;;;;36.40;31.11;100770.69;4788408;29;20047;-74
2021/06/09 08:22:19;;;;;;;7.97;6.38;;;;;;;35.70;32.41;100769.31;4789361;30;20054;-73
2021/06/09 08:25:24;;;;;;;11.45;9.30;;;;;;;34.26;34.85;100764.00;4789148;30;20058;-75
2021/06/09 08:28:29;;;;;;;9.15;6.88;;;;;;;33.89;36.06;100767.91;4777701;30;20046;-73
2021/06/09 08:31:35;;;;;;;14.35;7.20;;;;;;;33.42;37.51;100768.09;4778159;30;20071;-74
2021/06/09 08:34:39;;;;;;;10.93;8.45;;;;;;;33.35;37.10;100767.53;4788968;30;20054;-75
2021/06/09 08:37:44;;;;;;;11.27;9.60;;;;;;;32.73;38.47;100773.09;4788923;30;20054;-75
2021/06/09 08:40:50;;;;;;;14.55;11.55;;;;;;;32.07;38.84;100774.53;4787739;29;20074;-74
2021/06/09 08:43:57;;;;;;;12.77;11.60;;;;;;;31.14;40.88;100771.31;4771306;30;20504;-74
2021/06/09 08:47:03;;;;;;;12.90;11.45;;;;;;;30.74;41.92;100777.16;4770682;30;20044;-76
2021/06/09 08:50:11;;;;;;;16.23;11.95;;;;;;;30.44;42.43;100780.38;4760017;30;20052;-73
2021/06/09 08:53:20;;;;;;;13.18;11.75;;;;;;;30.32;43.07;100770.44;4771246;30;20056;-75
2021/06/09 08:56:26;;;;;;;11.10;9.50;;;;;;;30.47;43.15;100781.78;4785295;30;20048;-73
2021/06/09 08:59:31;;;;;;;11.57;8.38;;;;;;;30.72;42.77;100765.50;4788720;30;20054;-73
2021/06/09 09:02:35;;;;;;;13.23;10.13;;;;;;;30.84;42.63;100772.59;4788350;29;20046;-71
2021/06/09 09:05:40;;;;;;;15.45;12.25;;;;;;;30.54;43.45;100776.91;4780482;30;20406;-72
2021/06/09 09:08:44;;;;;;;12.45;11.13;;;;;;;30.57;43.33;100768.06;4788492;30;20051;-74
2021/06/09 09:11:49;;;;;;;14.98;11.45;;;;;;;30.53;43.19;100778.81;4788039;30;20051;-73
2021/06/09 09:14:53;;;;;;;11.23;9.35;;;;;;;30.36;43.99;100779.94;4777297;30;20055;-72
2021/06/09 09:18:00;;;;;;;11.73;9.75;;;;;;;30.24;43.58;100769.75;4788682;30;20059;-73
2021/06/09 09:21:05;;;;;;;11.55;7.93;;;;;;;30.34;43.57;100771.91;4788405;30;20074;-73
2021/06/09 09:24:11;;;;;;;13.10;11.70;;;;;;;30.41;43.25;100769.78;4788517;30;20062;-73
2021/06/09 09:27:28;;;;;;;11.57;10.38;;;;;;;30.21;42.33;100764.75;4787917;29;20051;-74
2021/06/09 09:30:35;;;;;;;11.70;8.32;;;;;;;30.50;42.90;100767.41;4788295;30;20048;-73
2021/06/09 09:33:41;;;;;;;12.07;9.75;;;;;;;30.61;43.33;100758.16;4788231;30;20054;-74
2021/06/09 09:37:03;;;;;;;14.68;10.05;;;;;;;30.33;43.03;100772.09;4788292;30;20054;-74
2021/06/09 09:40:18;;;;;;;8.50;7.05;;;;;;;30.31;41.01;100774.28;4788179;30;20043;-74
2021/06/09 09:43:59;;;;;;;8.65;7.00;;;;;;;30.59;43.11;100777.78;4787739;30;20055;-73
2021/06/09 09:47:15;;;;;;;14.93;7.22;;;;;;;30.84;42.43;100768.97;4787633;30;20099;-75
2021/06/09 09:50:33;;;;;;;11.38;6.80;;;;;;;30.74;42.51;100771.63;4788108;30;20518;-76
2021/06/09 09:53:37;;;;;;;9.98;8.10;;;;;;;30.69;42.32;100771.56;4788163;30;20066;-74
2021/06/09 09:56:43;;;;;;;13.02;7.15;;;;;;;30.57;42.92;100779.13;4788033;30;20415;-75
2021/06/09 09:59:54;;;;;;;8.77;7.25;;;;;;;30.48;42.26;100780.69;4788139;30;20058;-74
2021/06/09 10:03:18;;;;;;;11.77;8.88;;;;;;;30.47;42.55;100774.28;4766570;30;20059;-74
2021/06/09 10:06:25;;;;;;;9.07;6.72;;;;;;;30.36;43.54;100772.47;4776859;30;20062;-73
2021/06/09 10:09:36;;;;;;;12.30;10.48;;;;;;;30.29;42.71;100769.84;4788054;30;20506;-74
2021/06/09 10:13:06;;;;;;;15.30;10.60;;;;;;;30.06;43.15;100775.56;4787931;30;20131;-74
2021/06/09 10:16:24;;;;;;;12.43;10.02;;;;;;;30.05;42.88;100773.88;4787927;30;20055;-73
2021/06/09 10:19:37;;;;;;;11.40;10.30;;;;;;;29.87;44.10;100770.53;4788031;30;20055;-73
2021/06/09 10:22:51;;;;;;;10.38;9.00;;;;;;;29.78;43.69;100770.09;4787811;30;20043;-73
2021/06/09 10:26:11;;;;;;;14.98;11.35;;;;;;;29.88;43.89;100766.66;4787876;30;20066;-72
2021/06/09 10:29:19;;;;;;;9.48;8.43;;;;;;;30.06;43.35;100767.28;4787585;30;20047;-74
2021/06/09 10:32:23;;;;;;;13.93;10.48;;;;;;;30.02;42.75;100759.72;4787669;30;20054;-74
2021/06/09 10:35:38;;;;;;;8.38;7.15;;;;;;;30.09;43.30;100761.22;4787829;30;20052;-75
2021/06/09 10:38:54;;;;;;;11.13;9.88;;;;;;;30.12;43.23;100754.34;4770812;30;20078;-76
2021/06/09 10:42:04;;;;;;;9.75;8.70;;;;;;;29.92;43.80;100757.63;4780080;30;20065;-73
2021/06/09 10:45:10;;;;;;;8.80;7.28;;;;;;;30.00;43.78;100746.13;4779658;30;20063;-75
2021/06/09 10:48:24;;;;;;;10.95;6.82;;;;;;;30.08;43.06;100759.53;4790982;30;20415;-74
2021/06/09 10:51:29;;;;;;;8.25;7.43;;;;;;;30.17;43.69;100757.19;4790900;30;20071;-74
2021/06/09 10:54:33;;;;;;;13.07;7.65;;;;;;;30.16;43.65;100755.50;4790371;30;20411;-73
2021/06/09 10:57:38;;;;;;;10.05;7.57;;;;;;;30.15;43.50;100748.28;4790315;30;20078;-74
2021/06/09 11:00:43;;;;;;;11.05;7.97;;;;;;;30.07;43.38;100744.00;4788608;29;20058;-73
2021/06/09 11:03:49;;;;;;;8.25;7.28;;;;;;;29.93;43.08;100742.69;4778939;30;20070;-75
2021/06/09 11:06:55;;;;;;;9.20;6.57;;;;;;;29.91;43.92;100741.25;4790291;30;20058;-74
2021/06/09 11:10:03;;;;;;;13.05;11.30;;;;;;;29.68;43.49;100747.75;4789818;30;20058;-74
2021/06/09 11:13:09;;;;;;;9.48;6.95;;;;;;;29.35;45.45;100739.41;4790177;30;20055;-74
2021/06/09 11:16:17;;;;;;;8.40;7.20;;;;;;;29.41;44.66;100742.00;4790240;30;20084;-74
2021/06/09 11:19:42;;;;;;;6.65;5.68;;;;;;;29.54;44.05;100741.72;4789535;30;20050;-75
2021/06/09 11:23:23;;;;;;;9.02;5.72;;;;;;;29.55;43.99;100739.78;4772541;30;20067;-75
2021/06/09 11:26:30;;;;;;;11.23;5.75;;;;;;;29.67;43.97;100729.47;4789524;30;20521;-74
2021/06/09 11:29:35;;;;;;;11.65;7.20;;;;;;;29.56;44.90;100744.22;4790715;30;20062;-74
2021/06/09 11:32:43;;;;;;;21.55;8.90;;;;;;;29.32;44.01;100723.31;4778476;30;20058;-75
2021/06/09 11:35:49;;;;;;;12.80;7.10;;;;;;;29.00;43.10;100734.84;4761291;30;20551;-74
2021/06/09 11:39:05;;;;;;;9.05;5.93;;;;;;;28.90;44.83;100734.63;4772238;30;20059;-73
2021/06/09 11:42:10;;;;;;;6.53;5.68;;;;;;;29.16;43.86;100726.84;4772257;30;20050;-76
2021/06/09 11:45:22;;;;;;;8.30;5.68;;;;;;;29.14;43.87;100729.00;4788311;29;20078;-76
2021/06/09 11:48:29;;;;;;;6.90;5.80;;;;;;;29.15;42.81;100726.00;4772011;30;20058;-76
2021/06/09 11:51:41;;;;;;;6.25;5.00;;;;;;;29.22;43.69;100726.72;4771584;30;20054;-75
2021/06/09 11:54:46;;;;;;;6.22;4.82;;;;;;;29.34;44.30;100718.34;4771128;30;20055;-75
2021/06/09 11:58:12;;;;;;;9.88;6.03;;;;;;;29.43;42.29;100712.16;4771964;30;20051;-75
2021/06/09 12:01:18;;;;;;;10.23;4.93;;;;;;;29.44;43.09;100710.25;4771680;30;20075;-75
2021/06/09 12:04:25;;;;;;;7.32;4.75;;;;;;;29.52;43.77;100709.84;4771816;30;20103;-76
2021/06/09 12:07:32;;;;;;;87.00;10.38;;;;;;;29.51;43.80;100705.38;4772148;30;20075;-74
2021/06/09 12:10:36;;;;;;;11.00;5.68;;;;;;;29.47;43.94;100698.69;4770853;30;20425;-74
2021/06/09 12:13:42;;;;;;;5.95;5.20;;;;;;;29.41;43.43;100691.38;4763755;30;20732;-75
2021/06/09 12:16:48;;;;;;;7.65;5.68;;;;;;;29.06;44.52;100701.75;4768085;30;20062;-74
2021/06/09 12:19:57;;;;;;;7.53;5.55;;;;;;;29.02;44.26;100688.44;4771741;30;20058;-74
2021/06/09 12:23:13;;;;;;;9.00;5.30;;;;;;;28.90;44.09;100684.03;4757230;30;20051;-75
2021/06/09 12:26:17;;;;;;;9.15;6.57;;;;;;;28.97;44.90;100679.19;4771281;30;20055;-76
2021/06/09 12:29:28;;;;;;;7.57;5.78;;;;;;;29.13;44.14;100674.81;4770694;30;20059;-79
2021/06/09 12:32:35;;;;;;;11.50;6.22;;;;;;;29.23;44.43;100663.97;4770451;30;20059;-76
2021/06/09 12:35:39;;;;;;;13.55;6.78;;;;;;;29.34;44.09;100665.81;4770997;30;20424;-74
2021/06/09 12:38:44;;;;;;;7.05;5.05;;;;;;;29.46;44.75;100661.03;4780218;30;20054;-77
2021/06/09 12:41:49;;;;;;;10.18;5.78;;;;;;;29.31;43.55;100658.00;4771148;30;20066;-78
2021/06/09 12:44:54;;;;;;;21.98;7.20;;;;;;;28.93;43.24;100662.28;4770099;30;20055;-76
2021/06/09 12:48:04;;;;;;;9.63;5.20;;;;;;;29.09;43.96;100654.25;4786166;30;20530;-79
2021/06/09 12:51:09;;;;;;;10.63;7.00;;;;;;;29.10;44.74;100654.00;4757268;30;20062;-74
2021/06/09 12:54:14;;;;;;;10.98;5.70;;;;;;;29.30;44.04;100642.50;4786862;30;20165;-75
2021/06/09 12:57:28;;;;;;;8.07;5.85;;;;;;;29.36;43.47;100635.97;4786603;30;20062;-74
2021/06/09 13:00:39;;;;;;;10.65;5.40;;;;;;;29.42;44.30;100635.81;4787952;29;20058;-75
2021/06/09 13:03:48;;;;;;;8.07;5.78;;;;;;;29.48;44.95;100629.25;4780073;30;20058;-75
2021/06/09 13:06:53;;;;;;;10.05;5.63;;;;;;;29.27;44.29;100626.41;4777732;30;20050;-76
2021/06/09 13:09:58;;;;;;;7.88;5.93;;;;;;;29.07;43.41;100623.25;4788619;30;20054;-74
2021/06/09 13:13:06;;;;;;;9.57;5.15;;;;;;;28.97;42.81;100621.97;4788146;30;20526;-75
2021/06/09 13:16:21;;;;;;;8.65;5.57;;;;;;;28.98;42.71;100622.84;4776791;30;20055;-76
2021/06/09 13:19:26;;;;;;;8.60;5.78;;;;;;;29.09;44.25;100623.84;4786075;30;20590;-75
2021/06/09 13:22:41;;;;;;;9.93;5.10;;;;;;;29.33;43.60;100617.94;4785589;30;20058;-74
2021/06/09 13:25:45;;;;;;;6.78;4.28;;;;;;;29.37;43.84;100612.75;4787599;30;20054;-75
2021/06/09 13:28:50;;;;;;;7.50;4.10;;;;;;;29.24;41.31;100613.91;4784962;30;20050;-75
2021/06/09 13:31:56;;;;;;;4.80;4.10;;;;;;;29.33;41.63;100606.88;4786481;30;20058;-76
2021/06/09 13:35:02;;;;;;;6.82;3.75;;;;;;;29.42;41.71;100602.63;4788652;30;20075;-75
2021/06/09 13:38:11;;;;;;;9.45;4.53;;;;;;;29.34;40.73;100608.56;4776391;30;20054;-74
2021/06/09 13:41:15;;;;;;;5.35;3.70;;;;;;;29.36;41.12;100600.00;4788153;30;20062;-75
2021/06/09 13:44:20;;;;;;;10.63;4.72;;;;;;;29.45;40.04;100601.28;4786827;29;20062;-76
2021/06/09 13:47:26;;;;;;;6.18;4.82;;;;;;;29.44;40.32;100602.34;4776722;30;20062;-74
2021/06/09 13:50:30;;;;;;;7.07;4.53;;;;;;;29.30;41.02;100595.50;4787709;30;20511;-75
2021/06/09 13:53:58;;;;;;;6.00;4.80;;;;;;;29.26;41.49;100597.91;4787785;30;20066;-74
2021/06/09 13:57:14;;;;;;;8.98;5.03;;;;;;;29.11;40.49;100585.75;4787821;30;20415;-74
2021/06/09 14:00:34;;;;;;;7.07;5.13;;;;;;;29.10;41.64;100584.06;4787627;30;20054;-76
2021/06/09 14:03:39;;;;;;;9.68;4.35;;;;;;;29.09;41.64;100579.59;4787372;30;20126;-75
2021/06/09 14:06:44;;;;;;;8.98;4.43;;;;;;;29.17;41.70;100577.28;4775534;30;20067;-74
2021/06/09 14:09:59;;;;;;;9.93;4.55;;;;;;;29.17;41.14;100573.66;4785713;30;20131;-75
2021/06/09 14:13:03;;;;;;;6.65;5.60;;;;;;;29.27;41.19;100576.63;4788021;29;20058;-76
2021/06/09 14:16:08;;;;;;;9.55;4.93;;;;;;;29.35;42.53;100585.34;4780182;30;20046;-75
2021/06/09 14:19:12;;;;;;;9.35;5.22;;;;;;;29.47;41.81;100572.28;4790962;30;20070;-74
2021/06/09 14:22:20;;;;;;;6.88;4.47;;;;;;;29.52;41.60;100580.66;4791075;30;20050;-76
2021/06/09 14:25:27;;;;;;;7.05;4.30;;;;;;;29.59;40.67;100569.41;4773180;30;20062;-75